Time;durP1;ratioP1;P1;durP2;ratioP2;P2;SDS_P1;SDS_P2;PMS_P1;PMS_P2;Temp;Humidity;BMP_temperature;BMP_pressure;BME280_temperature;BME280_humidity;BME280_pressure;Samples;Min_cycle;Max_cycle;Signal;HPM_P1;HPM_P2
2023/09/10 00:01:30;;;;;;;;;15.00;15.00;;;;;29.57;42.44;100744.00;4904186;28;44851;-80
2023/09/10 00:03:56;;;;;;;;;18.33;17.00;;;;;29.51;42.59;100744.38;4904745;28;45128;-80
2023/09/10 00:06:21;;;;;;;;;14.67;14.67;;;;;29.51;42.79;100744.38;4908332;28;45395;-80
2023/09/10 00:08:48;;;;;;;;;13.67;13.67;;;;;29.52;42.94;100736.06;4891844;28;47578;-80
2023/09/10 00:11:13;;;;;;;;;13.00;11.33;;;;;29.43;42.99;100747.63;4907671;29;44768;-80
2023/09/10 00:13:39;;;;;;;;;8.33;8.33;;;;;29.38;42.93;100744.31;4907069;28;45363;-80
2023/09/10 00:16:06;;;;;;;;;13.33;11.67;;;;;29.38;42.63;100746.16;4906526;28;44915;-80
2023/09/10 00:18:32;;;;;;;;;12.33;12.33;;;;;29.35;43.06;100749.09;4907171;28;45165;-80
2023/09/10 00:21:01;;;;;;;;;16.00;14.00;;;;;29.42;42.83;100745.88;4906467;28;45198;-80
2023/09/10 00:23:26;;;;;;;;;12.67;12.67;;;;;29.30;43.20;100753.00;4906971;28;44935;-80
2023/09/10 00:25:57;;;;;;;;;13.00;12.67;;;;;29.34;43.40;100748.22;4907130;28;44885;-80
2023/09/10 00:28:22;;;;;;;;;14.00;12.33;;;;;29.23;43.35;100751.66;4889965;29;46203;-80
2023/09/10 00:30:52;;;;;;;;;12.33;12.00;;;;;29.32;43.32;100750.19;4906332;28;45357;-81
2023/09/10 00:33:22;;;;;;;;;12.67;11.33;;;;;29.24;43.62;100747.94;4906387;28;45466;-80
2023/09/10 00:35:49;;;;;;;;;13.67;13.00;;;;;29.18;43.70;100748.31;4907439;28;44683;-81
2023/09/10 00:38:15;;;;;;;;;11.33;11.33;;;;;29.12;43.47;100752.31;4890196;28;47451;-81
2023/09/10 00:40:40;;;;;;;;;14.33;14.33;;;;;29.10;43.83;100745.16;4905462;29;44771;-79
2023/09/10 00:43:06;;;;;;;;;13.33;11.67;;;;;29.09;44.16;100746.16;4907348;28;44805;-79
2023/09/10 00:45:32;;;;;;;;;11.67;11.67;;;;;29.08;44.23;100741.63;4908588;28;44904;-80
2023/09/10 00:47:58;;;;;;;;;15.67;12.33;;;;;28.99;43.83;100744.97;4890983;28;48332;-80
2023/09/10 00:50:23;;;;;;;;;15.00;15.00;;;;;28.98;43.85;100740.47;4906905;28;45387;-80
2023/09/10 00:52:55;;;;;;;;;12.33;11.67;;;;;29.07;43.86;100750.84;4889948;28;44839;-80
2023/09/10 00:55:22;;;;;;;;;13.00;13.00;;;;;28.99;44.12;100747.72;4906671;28;44781;-80
2023/09/10 00:57:51;;;;;;;;;16.00;14.00;;;;;28.96;44.30;100748.75;4906255;28;45301;-79
2023/09/10 01:00:18;;;;;;;;;14.00;11.00;;;;;28.91;44.45;100751.81;4889468;28;44765;-79
2023/09/10 01:02:44;;;;;;;;;13.00;12.33;;;;;28.85;44.40;100760.41;4908411;28;44752;-79
2023/09/10 01:05:11;;;;;;;;;13.67;12.67;;;;;28.87;44.37;100758.44;4906716;28;44889;-79
2023/09/10 01:07:37;;;;;;;;;13.00;12.00;;;;;28.77;44.36;100751.78;4908608;28;45565;-79
2023/09/10 01:10:07;;;;;;;;;14.00;12.33;;;;;28.77;44.74;100757.25;4907156;28;44875;-80
2023/09/10 04:48:08;;;;;;;;;12.00;12.00;;;;;27.03;48.95;100733.59;5499220;23;47066;-82
2023/09/10 06:00:23;;;;;;;;;12.00;10.67;;;;;26.81;49.17;100750.25;5830451;23;46909;-80
2023/09/10 06:08:00;;;;;;;;;15.33;14.33;;;;;26.97;48.95;100753.91;5709057;23;47030;-83
2023/09/10 06:15:39;;;;;;;;;13.00;13.00;;;;;27.21;48.43;100746.22;5565909;23;46814;-81
2023/09/10 06:38:47;;;;;;;;;13.33;13.00;;;;;27.79;46.99;100765.78;5187241;23;46415;-80
2023/09/10 06:41:14;;;;;;;;;12.67;12.67;;;;;27.86;47.13;100756.28;4929792;28;44783;-82
2023/09/10 06:43:39;;;;;;;;;10.00;9.33;;;;;27.90;47.23;100764.22;4930287;28;44729;-82
2023/09/10 06:46:06;;;;;;;;;11.00;11.00;;;;;28.02;46.86;100764.50;5467790;23;46371;-83
2023/09/10 06:48:31;;;;;;;;;17.00;14.67;;;;;28.08;47.09;100767.75;4928726;28;45045;-81
2023/09/10 06:51:00;;;;;;;;;13.67;13.67;;;;;28.17;46.61;100768.16;4929435;28;44958;-83
2023/09/10 06:53:29;;;;;;;;;12.00;12.00;;;;;28.21;46.70;100761.53;4912200;28;45221;-82
2023/09/10 06:58:30;;;;;;;;;15.33;13.33;;;;;28.37;46.67;100767.84;5049877;23;46398;-82
2023/09/10 07:03:33;;;;;;;;;13.67;12.33;;;;;28.63;46.61;100769.06;5637034;23;47056;-80
2023/09/10 07:06:02;;;;;;;;;12.33;12.00;;;;;28.72;46.10;100762.13;4912752;28;45001;-81
2023/09/10 07:08:28;;;;;;;;;14.33;13.67;;;;;28.65;46.15;100767.09;4928767;28;45150;-80
2023/09/10 07:10:54;;;;;;;;;12.33;12.33;;;;;28.74;46.20;100771.13;4927615;28;44956;-82
2023/09/10 07:13:19;;;;;;;;;11.33;11.00;;;;;28.87;46.06;100779.47;4928114;28;44721;-83
2023/09/10 07:20:57;;;;;;;;;14.67;13.00;;;;;28.90;45.44;100771.06;5288322;23;45910;-81
2023/09/10 07:23:23;;;;;;;;;16.00;12.33;;;;;28.92;45.10;100775.47;4928659;28;44917;-83
2023/09/10 07:38:45;;;;;;;;;10.33;10.33;;;;;29.07;44.13;100789.19;5503233;23;46614;-82
2023/09/10 07:51:29;;;;;;;;;10.33;10.33;;;;;29.42;42.98;100778.75;4926893;28;44825;-82
2023/09/10 07:59:07;;;;;;;;;13.33;12.33;;;;;29.61;43.00;100783.03;5398216;23;46060;-81
2023/09/10 08:01:32;;;;;;;;;10.00;10.00;;;;;29.64;42.66;100778.22;4928066;28;44732;-82
2023/09/10 08:03:58;;;;;;;;;9.33;9.33;;;;;29.69;42.23;100783.41;4928375;28;45001;-82
2023/09/10 08:06:23;;;;;;;;;12.67;11.67;;;;;29.66;42.26;100767.19;4928008;28;44704;-82
2023/09/10 08:08:48;;;;;;;;;11.33;10.33;;;;;29.66;42.53;100781.75;4911743;28;47045;-81
2023/09/10 08:13:57;;;;;;;;;10.67;10.33;;;;;29.71;42.08;100765.94;5053164;23;45199;-82
2023/09/10 08:18:58;;;;;;;;;10.33;9.33;;;;;29.82;42.33;100775.31;5142232;23;46541;-81
2023/09/10 08:21:23;;;;;;;;;9.33;8.33;;;;;29.80;42.41;100766.31;5164914;23;46644;-83
2023/09/10 08:31:34;;;;;;;;;13.67;13.00;;;;;30.21;41.83;100774.47;5472715;23;45932;-81
2023/09/10 08:34:00;;;;;;;;;13.00;12.00;;;;;30.30;41.50;100770.28;4915896;28;44846;-80
2023/09/10 09:07:32;;;;;;;;;12.00;12.00;;;;;31.05;40.26;100766.94;5846447;23;46912;31
2023/09/10 11:02:24;;;;;;;;;16.00;14.50;;;;;33.45;36.59;100693.47;5896372;23;46860;31
2023/09/10 16:07:03;;;;;;;;;9.00;9.00;;;;;36.50;28.36;100541.69;5098047;23;46274;-81
2023/09/10 16:09:28;;;;;;;;;10.67;10.67;;;;;36.50;28.48;100523.19;4907235;28;44819;-79
2023/09/10 16:11:57;;;;;;;;;11.67;10.67;;;;;36.69;28.42;100527.78;4908574;28;45132;-80
2023/09/10 16:14:22;;;;;;;;;14.67;13.33;;;;;36.66;28.53;100527.22;4908667;29;44862;-80
2023/09/10 16:16:48;;;;;;;;;16.00;13.67;;;;;36.63;27.85;100523.72;4908358;28;45225;-83
2023/09/10 16:19:13;;;;;;;;;10.00;10.00;;;;;36.54;28.30;100530.16;4909226;29;45026;-83
2023/09/10 16:21:41;;;;;;;;;12.00;11.00;;;;;36.44;28.12;100534.88;4910122;28;44828;-83
2023/09/10 16:24:06;;;;;;;;;12.00;12.00;;;;;36.26;28.29;100532.00;4908022;28;45917;-83
2023/09/10 16:26:32;;;;;;;;;11.00;11.00;;;;;36.25;28.33;100530.25;4892973;28;45537;-83
2023/09/10 16:28:58;;;;;;;;;13.00;12.00;;;;;36.11;28.28;100539.00;4910194;28;44700;-83
2023/09/10 16:31:23;;;;;;;;;10.00;9.67;;;;;35.97;28.64;100538.44;4891965;29;44929;-83
2023/09/10 16:33:49;;;;;;;;;10.67;10.67;;;;;35.91;29.02;100538.16;4891482;29;44733;-83
2023/09/10 16:36:24;;;;;;;;;14.00;13.00;;;;;35.87;29.53;100540.34;4909483;28;45274;-84
2023/09/10 16:38:50;;;;;;;;;12.33;10.33;;;;;35.61;30.13;100538.16;4908832;28;44750;-84
2023/09/10 16:41:15;;;;;;;;;14.00;14.00;;;;;35.40;30.25;100527.22;4891592;29;44835;-84
2023/09/10 16:43:44;;;;;;;;;11.67;9.00;;;;;35.32;30.50;100526.22;4893933;29;44771;-84
2023/09/10 16:46:09;;;;;;;;;12.67;12.67;;;;;35.16;30.21;100521.25;4911395;28;45276;-83
2023/09/10 16:48:37;;;;;;;;;11.33;11.33;;;;;35.07;30.91;100520.19;4912747;28;44807;-83
2023/09/10 16:51:04;;;;;;;;;11.00;10.00;;;;;35.02;30.94;100517.81;4912441;28;44750;-83
2023/09/10 16:53:29;;;;;;;;;13.67;12.33;;;;;34.93;30.86;100526.97;4912799;28;45296;-84
2023/09/10 16:55:57;;;;;;;;;9.00;9.00;;;;;34.89;31.00;100525.53;4898303;28;44977;-84
2023/09/10 16:58:22;;;;;;;;;11.67;11.00;;;;;34.84;31.30;100528.72;4895110;29;44829;-82
2023/09/10 17:00:50;;;;;;;;;12.00;12.00;;;;;34.77;31.33;100516.47;4895859;28;45411;-83
2023/09/10 17:06:37;;;;;;;;;11.67;9.00;;;;;34.76;31.34;100531.28;4913000;28;45335;-83
2023/09/10 17:09:02;;;;;;;;;12.33;11.67;;;;;34.67;32.07;100521.09;4896128;29;44924;-83
2023/09/10 17:11:28;;;;;;;;;11.00;11.00;;;;;34.66;31.48;100534.03;4896056;29;44915;-85
2023/09/10 17:13:54;;;;;;;;;11.67;11.67;;;;;34.64;31.83;100521.31;4912437;28;44792;-83
2023/09/10 17:19:41;;;;;;;;;13.67;13.67;;;;;34.70;32.11;100517.16;4913944;28;45341;-83
2023/09/10 17:22:07;;;;;;;;;11.67;11.67;;;;;34.64;31.88;100524.97;4897001;28;44845;-84
2023/09/10 17:24:32;;;;;;;;;9.00;9.00;;;;;34.59;31.98;100518.13;4913137;28;44735;-84
2023/09/10 17:26:58;;;;;;;;;10.33;9.33;;;;;34.54;32.16;100515.78;4914017;28;45176;-84
2023/09/10 17:29:23;;;;;;;;;10.33;10.33;;;;;34.46;32.30;100508.19;4914040;28;44832;-84
2023/09/10 17:31:50;;;;;;;;;12.33;11.00;;;;;34.45;32.28;100505.56;4911646;28;44789;-84
2023/09/10 17:34:15;;;;;;;;;11.00;11.00;;;;;34.45;32.45;100517.47;4908270;28;44854;-83
2023/09/10 17:36:42;;;;;;;;;10.33;10.33;;;;;34.43;32.45;100507.59;4911004;28;45154;-84
2023/09/10 17:39:07;;;;;;;;;14.00;13.00;;;;;34.41;32.72;100513.22;4911306;28;44762;-84
2023/09/10 17:41:32;;;;;;;;;10.67;10.67;;;;;34.37;32.83;100502.63;4910982;28;45246;-84
2023/09/10 17:43:58;;;;;;;;;10.67;10.67;;;;;34.35;32.68;100505.50;4893642;28;45296;-84
2023/09/10 17:46:25;;;;;;;;;10.67;10.33;;;;;34.33;32.91;100509.44;4909842;28;45477;-83
2023/09/10 17:48:50;;;;;;;;;11.67;11.67;;;;;34.21;32.52;100503.97;4893946;28;44845;-83
2023/09/10 17:51:17;;;;;;;;;11.33;10.00;;;;;34.08;33.08;100493.13;4908956;28;45223;-83
2023/09/10 17:53:44;;;;;;;;;14.00;14.00;;;;;34.02;33.25;100507.47;4909883;29;45388;-84
2023/09/10 17:56:09;;;;;;;;;14.00;13.00;;;;;33.85;33.07;100505.31;4909038;29;45260;-83
2023/09/10 17:58:35;;;;;;;;;11.67;11.67;;;;;33.79;33.41;100515.00;4909236;28;44886;-83
2023/09/10 18:01:03;;;;;;;;;12.67;12.67;;;;;33.77;33.37;100516.16;4910010;28;45275;-83
2023/09/10 18:03:28;;;;;;;;;17.33;15.33;;;;;33.56;33.97;100521.63;4895482;28;44890;-83
2023/09/10 18:05:53;;;;;;;;;14.00;13.67;;;;;33.50;33.99;100524.94;4909776;28;47206;-83
2023/09/10 18:08:19;;;;;;;;;15.67;15.33;;;;;33.42;33.95;100531.97;4894582;29;45298;-83
2023/09/10 18:10:44;;;;;;;;;17.67;16.33;;;;;33.31;34.27;100525.59;4910180;28;45317;-84
2023/09/10 18:13:11;;;;;;;;;16.33;15.00;;;;;33.32;34.46;100532.88;4894892;29;44787;-83
2023/09/10 18:15:36;;;;;;;;;17.00;15.67;;;;;33.17;34.66;100535.06;4893604;28;46853;-84
2023/09/10 18:18:44;;;;;;;;;18.67;17.67;;;;;33.26;34.60;100535.16;4910133;28;44809;-83
2023/09/10 18:21:10;;;;;;;;;18.00;18.00;;;;;32.95;34.97;100536.84;4894257;29;44847;-83
2023/09/10 18:23:36;;;;;;;;;19.67;19.67;;;;;32.91;35.35;100543.59;4914588;29;44898;-83
2023/09/10 18:26:02;;;;;;;;;19.67;18.00;;;;;32.81;35.28;100553.63;4912641;28;47346;-83
2023/09/10 18:28:27;;;;;;;;;14.33;14.33;;;;;32.69;35.53;100547.25;4910055;28;45164;-84
2023/09/10 18:31:46;;;;;;;;;16.67;16.67;;;;;32.77;35.35;100543.88;4910005;29;45304;-84
2023/09/10 18:34:12;;;;;;;;;15.00;14.33;;;;;32.54;36.21;100548.47;4912671;28;44877;-84
2023/09/10 18:36:38;;;;;;;;;15.33;15.33;;;;;32.44;36.51;100549.22;4911573;28;47119;-84
2023/09/10 18:39:03;;;;;;;;;17.00;16.00;;;;;32.40;36.44;100557.84;4909797;28;45388;-84
2023/09/10 18:41:34;;;;;;;;;15.33;15.00;;;;;32.42;36.51;100562.25;4911188;29;44789;-84
2023/09/10 18:47:24;;;;;;;;;16.67;16.67;;;;;32.18;37.30;100561.47;4909231;28;44951;-84
2023/09/10 18:49:49;;;;;;;;;17.00;17.00;;;;;32.04;37.06;100552.41;4892219;29;45393;-84
2023/09/10 18:52:17;;;;;;;;;16.33;16.33;;;;;31.99;37.39;100554.59;4910041;28;45065;-84
2023/09/10 18:54:44;;;;;;;;;17.33;17.33;;;;;31.96;37.51;100562.25;4911188;28;45124;-84
2023/09/10 18:57:13;;;;;;;;;19.00;19.00;;;;;31.85;37.61;100558.47;4895235;29;46595;-84
2023/09/10 18:59:40;;;;;;;;;20.67;20.00;;;;;31.87;37.82;100578.47;4893616;28;44787;-83
2023/09/10 19:02:07;;;;;;;;;24.33;21.33;;;;;31.78;38.26;100572.81;4912448;28;44793;-84
2023/09/10 19:04:32;;;;;;;;;23.00;20.33;;;;;31.80;37.98;100577.19;4896416;28;44815;-84
2023/09/10 19:07:00;;;;;;;;;22.33;19.67;;;;;31.76;38.57;100594.94;4910223;28;45080;-84
2023/09/10 19:09:26;;;;;;;;;18.67;18.67;;;;;31.68;38.90;100579.00;4911897;28;44891;-84
2023/09/10 19:11:51;;;;;;;;;19.33;19.33;;;;;31.67;38.59;100588.28;4895210;28;44882;-84
2023/09/10 19:14:16;;;;;;;;;18.67;15.67;;;;;31.63;39.18;100581.25;4911204;28;45423;-84
2023/09/10 19:16:49;;;;;;;;;20.33;18.67;;;;;31.67;39.37;100587.38;4911216;28;45069;-84
2023/09/10 19:19:16;;;;;;;;;18.33;18.33;;;;;31.54;38.95;100597.56;4894908;28;44817;-84
2023/09/10 19:21:44;;;;;;;;;18.33;18.33;;;;;31.52;39.06;100583.06;4894467;28;44814;-84
2023/09/10 19:24:13;;;;;;;;;19.00;18.33;;;;;31.50;40.12;100592.28;4911692;28;44864;-84
2023/09/10 19:26:39;;;;;;;;;20.00;18.00;;;;;31.37;40.55;100596.97;4910872;29;45398;-84
2023/09/10 19:29:06;;;;;;;;;17.33;17.33;;;;;31.33;40.91;100589.94;4895096;28;45915;-84
2023/09/10 19:31:32;;;;;;;;;17.00;17.00;;;;;31.29;41.33;100592.03;4912031;28;45429;-84
2023/09/10 19:34:02;;;;;;;;;21.67;21.33;;;;;31.30;41.00;100599.28;4912511;29;45327;-84
2023/09/10 19:36:32;;;;;;;;;24.67;22.00;;;;;31.24;41.00;100596.97;4909913;28;45924;-84
2023/09/10 19:38:58;;;;;;;;;19.33;19.33;;;;;31.20;41.17;100602.84;4893030;28;44780;-84
2023/09/10 19:41:23;;;;;;;;;26.33;23.00;;;;;31.13;40.97;100594.19;4891192;29;44839;-84
2023/09/10 19:43:49;;;;;;;;;20.33;19.00;;;;;31.12;41.13;100602.53;4892482;28;44796;-84
2023/09/10 19:46:19;;;;;;;;;20.67;20.67;;;;;31.19;41.19;100601.97;4893580;28;47060;-84
2023/09/10 19:48:44;;;;;;;;;20.00;18.67;;;;;30.99;41.50;100597.94;4908464;28;44888;-84
2023/09/10 19:51:10;;;;;;;;;24.33;23.00;;;;;30.93;40.91;100589.28;4907460;28;45474;-84
2023/09/10 19:53:35;;;;;;;;;24.00;23.00;;;;;30.93;40.99;100597.53;4909237;28;45311;-84
2023/09/10 19:56:10;;;;;;;;;23.67;23.67;;;;;30.93;41.38;100601.16;4891780;28;46066;-84
2023/09/10 19:58:37;;;;;;;;;21.67;21.67;;;;;30.85;41.73;100596.19;4909815;29;45527;-84
2023/09/10 20:01:03;;;;;;;;;22.00;21.33;;;;;30.82;41.31;100604.63;4891907;29;45434;-84
2023/09/10 20:03:29;;;;;;;;;24.33;24.00;;;;;30.81;41.69;100605.63;4892569;28;44785;-84
2023/09/10 20:05:59;;;;;;;;;21.67;21.00;;;;;30.78;41.71;100608.59;4906885;28;47472;-84
2023/09/10 20:08:33;;;;;;;;;19.67;19.67;;;;;30.82;41.75;100599.13;4908989;28;44815;-84
2023/09/10 20:10:58;;;;;;;;;22.67;22.33;;;;;30.68;42.22;100611.16;4910380;28;44926;-84
2023/09/10 20:13:24;;;;;;;;;22.67;22.67;;;;;30.59;42.14;100594.47;4911721;28;44797;-84
2023/09/10 20:15:49;;;;;;;;;21.67;21.67;;;;;30.58;41.96;100589.94;4910536;28;47900;-84
2023/09/10 20:18:14;;;;;;;;;24.00;21.33;;;;;30.60;41.92;100597.09;4894926;29;45551;-84
2023/09/10 20:20:40;;;;;;;;;22.00;22.00;;;;;30.59;42.03;100602.69;4898798;28;44872;-84
2023/09/10 20:23:05;;;;;;;;;18.00;18.00;;;;;30.55;41.54;100601.16;4914073;28;45199;-84
2023/09/10 20:25:32;;;;;;;;;13.67;13.33;;;;;30.53;41.53;100603.16;4913603;28;46998;-84
2023/09/10 20:27:57;;;;;;;;;14.33;14.33;;;;;30.48;41.87;100596.13;4897598;28;44782;-84
2023/09/10 20:30:25;;;;;;;;;16.33;16.33;;;;;30.47;42.01;100602.59;4911946;28;45290;-84
2023/09/10 20:32:51;;;;;;;;;16.33;15.67;;;;;30.44;41.94;100600.06;4895708;29;45418;-84
2023/09/10 20:35:17;;;;;;;;;18.67;16.67;;;;;30.43;41.98;100595.56;4911167;28;45652;-84
2023/09/10 20:37:43;;;;;;;;;22.00;22.00;;;;;30.40;42.12;100590.31;4912100;28;44799;-84
2023/09/10 20:40:08;;;;;;;;;23.50;23.50;;;;;30.44;42.59;100594.59;4912858;28;44783;-84
2023/09/10 20:42:36;;;;;;;;;18.67;18.00;;;;;30.38;42.48;100586.78;4897219;28;44858;-84
2023/09/10 20:45:02;;;;;;;;;19.67;19.67;;;;;30.38;42.31;100586.78;4913579;28;45066;-83
2023/09/10 20:47:27;;;;;;;;;24.00;24.00;;;;;30.35;42.41;100586.13;4913996;28;45332;-84
2023/09/10 20:49:53;;;;;;;;;21.00;20.33;;;;;30.34;42.67;100596.22;4912271;28;45405;-83
2023/09/10 20:52:20;;;;;;;;;21.00;21.00;;;;;30.35;42.84;100603.47;4910609;28;44781;-83
2023/09/10 20:54:45;;;;;;;;;18.33;18.33;;;;;30.31;42.83;100601.94;4912006;28;46743;-83
2023/09/10 20:57:12;;;;;;;;;24.00;21.00;;;;;30.29;43.10;100593.75;4911987;28;45317;-83
2023/09/10 20:59:37;;;;;;;;;18.00;18.00;;;;;30.26;42.91;100604.97;4895387;28;45406;-83
2023/09/10 21:02:03;;;;;;;;;22.67;21.67;;;;;30.21;43.22;100601.66;4912396;29;44862;-83
2023/09/10 21:04:28;;;;;;;;;21.00;21.00;;;;;30.22;43.25;100619.88;4896229;28;47529;-83
2023/09/10 21:06:54;;;;;;;;;24.67;22.33;;;;;30.13;43.65;100614.16;4895703;28;45416;-83
2023/09/10 21:09:22;;;;;;;;;23.33;21.00;;;;;30.06;43.84;100611.84;4915159;28;45184;-83
2023/09/10 21:11:47;;;;;;;;;20.33;20.33;;;;;29.99;44.13;100618.75;4914162;29;44831;-83
2023/09/10 21:14:15;;;;;;;;;17.33;15.67;;;;;30.00;43.88;100634.22;4914771;29;45619;-83
2023/09/10 21:16:40;;;;;;;;;17.67;17.67;;;;;29.85;44.36;100636.13;4914013;29;44652;-83
2023/09/10 21:19:05;;;;;;;;;19.67;19.67;;;;;29.83;44.41;100629.88;4912824;29;45049;-83
2023/09/10 21:21:31;;;;;;;;;21.33;19.00;;;;;29.81;44.66;100630.97;4913288;29;45270;-84
2023/09/10 21:23:56;;;;;;;;;24.00;22.33;;;;;29.76;44.55;100627.69;4913579;29;46782;-83
2023/09/10 21:26:22;;;;;;;;;15.00;14.67;;;;;29.73;46.01;100633.38;4913006;28;45469;-82
2023/09/10 21:28:50;;;;;;;;;21.67;20.33;;;;;29.68;45.31;100633.66;4913602;28;45395;-83
2023/09/10 21:31:17;;;;;;;;;18.33;16.67;;;;;29.58;45.19;100633.38;4912806;28;44878;-83
2023/09/10 21:33:42;;;;;;;;;20.67;20.67;;;;;29.52;46.04;100631.94;4897256;28;46921;-83
2023/09/10 21:36:11;;;;;;;;;19.00;19.00;;;;;29.49;46.60;100634.00;4913503;29;44806;-83
2023/09/10 21:38:37;;;;;;;;;18.67;18.67;;;;;29.43;46.72;100635.31;4915151;28;45451;-83
2023/09/10 21:41:02;;;;;;;;;23.00;21.33;;;;;29.37;46.89;100626.59;4912753;28;45092;-82
2023/09/10 21:43:28;;;;;;;;;20.33;20.33;;;;;29.37;46.90;100634.81;4895397;28;45332;-82
2023/09/10 21:45:53;;;;;;;;;22.00;21.67;;;;;29.32;47.22;100633.25;4911596;29;45537;-83
2023/09/10 21:48:19;;;;;;;;;17.33;17.33;;;;;29.25;47.47;100639.28;4913648;28;45113;-83
2023/09/10 21:50:44;;;;;;;;;21.67;20.00;;;;;29.20;48.88;100646.91;4913550;29;44846;-83
2023/09/10 21:53:17;;;;;;;;;20.33;19.33;;;;;29.07;48.30;100635.84;4913262;29;45217;-84
2023/09/10 21:55:43;;;;;;;;;25.67;23.33;;;;;29.04;48.89;100639.63;4911828;28;45107;-84
2023/09/10 21:58:08;;;;;;;;;23.00;23.00;;;;;28.98;48.81;100636.41;4913447;29;45653;-83
2023/09/10 22:00:34;;;;;;;;;26.00;24.33;;;;;28.93;49.66;100629.38;4912814;29;44788;-84
2023/09/10 22:02:59;;;;;;;;;26.00;23.00;;;;;28.94;49.25;100641.22;4911192;29;44985;-84
2023/09/10 22:05:25;;;;;;;;;31.67;29.00;;;;;28.95;49.48;100636.63;4910619;28;44738;-84
2023/09/10 22:07:50;;;;;;;;;25.67;25.67;;;;;28.91;50.23;100642.28;4910572;28;45272;-83
2023/09/10 22:10:16;;;;;;;;;22.67;22.67;;;;;28.82;50.55;100636.53;4912476;28;44908;-83
2023/09/10 22:12:41;;;;;;;;;25.33;24.00;;;;;28.79;50.92;100637.59;4911603;28;47023;-84
2023/09/10 22:15:11;;;;;;;;;26.33;26.33;;;;;28.76;50.74;100643.25;4911967;29;45455;-83
2023/09/10 22:17:37;;;;;;;;;24.00;24.00;;;;;28.70;51.80;100641.81;4911990;28;45355;-83
2023/09/10 22:20:05;;;;;;;;;24.33;24.33;;;;;28.66;51.42;100644.81;4894870;28;45461;-83
2023/09/10 22:25:52;;;;;;;;;25.67;25.67;;;;;28.59;51.92;100638.00;4911434;29;44945;-83
2023/09/10 22:28:21;;;;;;;;;24.00;24.00;;;;;28.66;52.47;100639.34;4896083;28;45270;-83
2023/09/10 22:30:46;;;;;;;;;21.00;21.00;;;;;28.56;52.91;100640.91;4895929;28;45444;-83
2023/09/10 22:33:12;;;;;;;;;21.33;20.00;;;;;28.51;52.11;100647.56;4912102;28;44990;-83
2023/09/10 22:35:37;;;;;;;;;21.00;21.00;;;;;28.49;52.89;100652.22;4895350;28;44808;-83
2023/09/10 22:38:03;;;;;;;;;24.33;24.00;;;;;28.44;52.72;100634.31;4912664;28;45464;-83
2023/09/10 22:40:28;;;;;;;;;25.00;23.67;;;;;28.42;52.36;100639.91;4912399;28;44893;-83
2023/09/10 22:42:53;;;;;;;;;23.00;23.00;;;;;28.32;52.82;100636.84;4910132;28;45423;-83
2023/09/10 22:45:19;;;;;;;;;29.67;28.33;;;;;28.32;52.77;100657.88;4911046;28;45292;-82
2023/09/10 22:47:46;;;;;;;;;26.67;26.00;;;;;28.25;53.12;100643.66;4911496;28;45366;-83
2023/09/10 22:50:12;;;;;;;;;23.67;23.67;;;;;28.24;53.83;100649.25;4910820;28;44873;-83
2023/09/10 22:55:59;;;;;;;;;27.33;26.00;;;;;28.11;54.54;100652.72;4911130;28;44755;-83
2023/09/10 22:58:25;;;;;;;;;23.67;23.67;;;;;28.07;54.50;100644.78;4909701;28;45268;-82
2023/09/10 23:00:50;;;;;;;;;24.00;24.00;;;;;28.05;54.28;100652.22;4910682;29;44824;-82
2023/09/10 23:03:16;;;;;;;;;22.33;20.67;;;;;28.03;54.76;100655.03;4893571;28;46999;-83
2023/09/10 23:09:11;;;;;;;;;23.00;23.00;;;;;28.13;54.79;100658.09;4911490;29;44945;-83
2023/09/10 23:11:37;;;;;;;;;25.00;25.00;;;;;27.95;54.96;100642.81;4912441;29;45494;-83
2023/09/10 23:14:02;;;;;;;;;22.00;20.33;;;;;27.92;55.43;100650.22;4895219;28;45477;-83
2023/09/10 23:16:28;;;;;;;;;24.00;24.00;;;;;27.90;55.24;100649.44;4912379;28;44764;-82
2023/09/10 23:19:46;;;;;;;;;25.67;24.00;;;;;28.06;54.71;100645.78;4909803;28;45222;-82
2023/09/10 23:22:12;;;;;;;;;25.67;25.67;;;;;27.92;55.61;100639.28;4894925;28;45404;-82
2023/09/10 23:24:37;;;;;;;;;19.33;19.33;;;;;27.94;55.43;100644.66;4911359;28;45288;-82
2023/09/10 23:27:05;;;;;;;;;26.67;24.00;;;;;28.00;55.42;100637.94;4894048;28;45429;-82
2023/09/10 23:29:32;;;;;;;;;26.67;26.67;;;;;27.85;56.22;100632.38;4910874;28;44942;-83
2023/09/10 23:32:00;;;;;;;;;22.33;22.33;;;;;27.96;55.63;100650.03;4912302;28;45005;-83
2023/09/10 23:34:26;;;;;;;;;27.00;24.67;;;;;27.89;56.03;100641.31;4909079;28;45215;-83
2023/09/10 23:36:53;;;;;;;;;26.00;24.67;;;;;27.85;56.30;100647.91;4893222;29;44781;-83
2023/09/10 23:39:18;;;;;;;;;28.33;26.33;;;;;27.72;56.27;100632.25;4909765;28;44852;-83
2023/09/10 23:41:44;;;;;;;;;27.00;24.33;;;;;27.76;56.01;100640.28;4893331;28;45052;-83
2023/09/10 23:44:09;;;;;;;;;24.33;21.00;;;;;27.78;56.25;100638.31;4910218;28;45393;-83
2023/09/10 23:46:36;;;;;;;;;21.33;21.00;;;;;27.73;56.41;100636.75;4909296;28;45586;-83
2023/09/10 23:49:02;;;;;;;;;25.33;23.67;;;;;27.70;56.50;100639.66;4910108;28;45464;-83
2023/09/10 23:51:28;;;;;;;;;28.00;27.00;;;;;27.69;56.58;100646.09;4893653;28;45615;-83
2023/09/10 23:53:53;;;;;;;;;23.00;23.00;;;;;27.64;56.92;100630.94;4894398;28;45042;-83
2023/09/10 23:56:18;;;;;;;;;30.67;26.67;;;;;27.66;56.48;100632.59;4910528;29;44808;-84
2023/09/10 23:58:45;;;;;;;;;27.33;27.33;;;;;27.63;56.89;100640.09;4893277;29;44863;-83
